FTU12FS ZULS-VELR
Flight info
| Callsign | FTU12FS |
|---|---|
| Flight time | N/A |
| Altitude | 15000 |
| Route | EO28R DM435/K0330S0510 DCT 294403N0921837E 294625N0921936E 294735N0922021E 294903N0922129E/K0332S0480 295035N0922113E 295139N0922006E 295238N0921941E/K0330S0510 295337N0922050E 295449N0922128E 295445N0922535E 295326N0922732E 295345N0922858E 295259N0923054E 295217N0923127E 295238N0923232E 295206N0923501E 295155N0923625E 295232N0923755E 295213N0924052E 295509N0924537E 295707N0925121E 300110N0925243E 300160N0925626E 295903N0930622E 295248N0931318E 295358N0932046E 295314N0932926E 295356N0933642E 295432N0933925E 295733N0934003E 295823N0934214E 295922N0934809E 295843N0935156E 300101N0935517E 295932N0940124E 295736N0940747E 295930N0941238E 295806N0941401E 295812N0941538E 295809N0941618E 295807N0942143E 295822N0942547E 295932N0942857E 295942N0943359E 295942N0944411E 295647N0944829E 300000N0945533E 295418N0950726E/K0330S0480 294554N0950344E 294552N0945938E 294426N0945612E 294304N0945545E 294130N0945323E 293829N0945212E/K0328S0510 293714N0945520E 293544N0945559E/K0330S0480 293156N0945248E 293014N0944922E 292811N0944913E 292813N0944451E 292801N0943902E 292820N0943543E 292636N0942952E 292524N0942815E 292118N0942455E 291839N0942048E/N0178F160 |
| Aircraft | SR22/L-SDGRY/S |
Departure
| Time | 2026-05-01 08:58 |
|---|---|
| Airport | Lhasa Gonggar International Airport (ZULS) |
Arrival
| Time | N/A |
|---|---|
| Airport | Lilabari North Lakhimpur Airport (VELR) |
| Time | Latitude | Longitude | Altitude | Speed | Heading |
|---|---|---|---|---|---|
| 2026-05-01 08:58 | 29.29937 | 90.85234 | 12802 ft | 98 kts | 254° |
| 2026-05-01 08:58 | 29.29759 | 90.84472 | 12932 ft | 97 kts | 249° |
| 2026-05-01 08:58 | 29.29529 | 90.83746 | 13058 ft | 97 kts | 244° |
| 2026-05-01 08:58 | 29.29242 | 90.83041 | 13183 ft | 97 kts | 239° |
| 2026-05-01 08:59 | 29.28970 | 90.82336 | 13303 ft | 98 kts | 247° |
| 2026-05-01 08:59 | 29.28792 | 90.81577 | 13424 ft | 98 kts | 256° |
| 2026-05-01 08:59 | 29.28719 | 90.80795 | 13542 ft | 99 kts | 265° |
| 2026-05-01 08:59 | 29.28753 | 90.80009 | 13658 ft | 100 kts | 274° |
| 2026-05-01 09:00 | 29.28896 | 90.79225 | 13773 ft | 100 kts | 283° |
| 2026-05-01 09:00 | 29.29145 | 90.78476 | 13886 ft | 101 kts | 292° |
| 2026-05-01 09:00 | 29.29496 | 90.77771 | 13999 ft | 101 kts | 302° |
| 2026-05-01 09:00 | 29.29939 | 90.77142 | 14109 ft | 102 kts | 311° |
| 2026-05-01 09:01 | 29.30465 | 90.76597 | 14218 ft | 102 kts | 320° |
| 2026-05-01 09:01 | 29.31063 | 90.76150 | 14326 ft | 102 kts | 329° |
| 2026-05-01 09:01 | 29.31711 | 90.75819 | 14431 ft | 102 kts | 339° |
| 2026-05-01 09:01 | 29.32398 | 90.75609 | 14532 ft | 103 kts | 348° |
| 2026-05-01 09:02 | 29.33118 | 90.75523 | 14634 ft | 103 kts | 358° |
| 2026-05-01 09:02 | 29.33835 | 90.75573 | 14734 ft | 103 kts | 7° |
| 2026-05-01 09:02 | 29.34535 | 90.75752 | 14831 ft | 103 kts | 17° |
| 2026-05-01 09:02 | 29.35206 | 90.76058 | 14927 ft | 103 kts | 26° |
| 2026-05-01 09:03 | 29.35820 | 90.76482 | 15021 ft | 103 kts | 36° |
| 2026-05-01 09:03 | 29.36372 | 90.77015 | 15114 ft | 103 kts | 45° |
| 2026-05-01 09:03 | 29.36838 | 90.77637 | 15205 ft | 103 kts | 55° |
| 2026-05-01 09:03 | 29.37210 | 90.78334 | 15298 ft | 102 kts | 64° |
| 2026-05-01 09:04 | 29.37481 | 90.79089 | 15391 ft | 102 kts | 74° |
| 2026-05-01 09:04 | 29.37643 | 90.79875 | 15483 ft | 101 kts | 83° |
| 2026-05-01 09:04 | 29.37695 | 90.80680 | 15575 ft | 101 kts | 91° |
| 2026-05-01 09:04 | 29.37637 | 90.81479 | 15668 ft | 100 kts | 99° |
| 2026-05-01 09:05 | 29.37475 | 90.82248 | 15758 ft | 100 kts | 106° |
| 2026-05-01 09:05 | 29.37289 | 90.83013 | 15850 ft | 100 kts | 102° |
| 2026-05-01 09:05 | 29.37145 | 90.83800 | 15940 ft | 99 kts | 97° |
| 2026-05-01 09:05 | 29.37054 | 90.84582 | 16026 ft | 99 kts | 93° |
| 2026-05-01 09:06 | 29.37010 | 90.85372 | 16112 ft | 99 kts | 89° |
| 2026-05-01 09:06 | 29.37032 | 90.86163 | 16197 ft | 99 kts | 82° |
| 2026-05-01 09:06 | 29.37093 | 90.86693 | 16116 ft | 17 kts | 5° |
| 2026-05-01 09:06 | 29.37078 | 90.86677 | 15642 ft | 18 kts | 154° |
| 2026-05-01 09:07 | 29.37075 | 90.86678 | 15606 ft | 18 kts | 140° |
| 2026-05-01 09:07 | 29.37066 | 90.86700 | 15299 ft | 18 kts | 12° |
| 2026-05-01 09:07 | 29.37261 | 90.86446 | 14050 ft | 140 kts | 321° |
| 2026-05-01 09:08 | 29.37972 | 90.86266 | 14485 ft | 102 kts | 25° |
| 2026-05-01 09:08 | 29.38498 | 90.86824 | 14548 ft | 105 kts | 64° |
| 2026-05-01 09:08 | 29.38579 | 90.87637 | 14681 ft | 102 kts | 90° |
| 2026-05-01 09:08 | 29.38598 | 90.88436 | 14799 ft | 100 kts | 82° |
| 2026-05-01 09:09 | 29.38759 | 90.89278 | 14753 ft | 116 kts | 66° |
| 2026-05-01 09:09 | 29.39197 | 90.90081 | 14769 ft | 123 kts | 46° |
| 2026-05-01 09:09 | 29.39859 | 90.90720 | 14830 ft | 126 kts | 31° |
| 2026-05-01 09:09 | 29.40648 | 90.91206 | 14912 ft | 128 kts | 25° |
| 2026-05-01 09:10 | 29.41454 | 90.91645 | 15003 ft | 129 kts | 24° |
| 2026-05-01 09:10 | 29.42268 | 90.92072 | 15096 ft | 129 kts | 23° |
| 2026-05-01 09:10 | 29.43103 | 90.92502 | 15192 ft | 130 kts | 23° |
| 2026-05-01 09:10 | 29.43932 | 90.92924 | 15289 ft | 130 kts | 22° |
| 2026-05-01 09:11 | 29.44758 | 90.93343 | 15383 ft | 130 kts | 22° |
| 2026-05-01 09:11 | 29.45591 | 90.93765 | 15478 ft | 130 kts | 22° |
| 2026-05-01 09:11 | 29.46421 | 90.94184 | 15571 ft | 130 kts | 22° |
| 2026-05-01 09:11 | 29.47250 | 90.94603 | 15662 ft | 130 kts | 22° |
| 2026-05-01 09:12 | 29.48080 | 90.95023 | 15753 ft | 130 kts | 22° |
| 2026-05-01 09:12 | 29.48918 | 90.95445 | 15846 ft | 130 kts | 23° |
| 2026-05-01 09:12 | 29.49744 | 90.95863 | 15939 ft | 130 kts | 23° |
| 2026-05-01 09:12 | 29.50580 | 90.96286 | 16032 ft | 129 kts | 23° |
| 2026-05-01 09:13 | 29.51406 | 90.96703 | 16123 ft | 129 kts | 23° |
| 2026-05-01 09:13 | 29.52234 | 90.97122 | 16211 ft | 129 kts | 23° |
| 2026-05-01 09:13 | 29.53047 | 90.97533 | 16295 ft | 129 kts | 23° |
| 2026-05-01 09:13 | 29.53877 | 90.97954 | 16379 ft | 129 kts | 23° |
| 2026-05-01 09:14 | 29.54700 | 90.98370 | 16460 ft | 129 kts | 23° |
| 2026-05-01 09:14 | 29.55516 | 90.98784 | 16539 ft | 129 kts | 23° |
| 2026-05-01 09:14 | 29.56343 | 90.99202 | 16618 ft | 129 kts | 23° |
| 2026-05-01 09:14 | 29.57157 | 90.99613 | 16694 ft | 129 kts | 24° |
| 2026-05-01 09:15 | 29.57963 | 91.00072 | 16769 ft | 129 kts | 28° |
| 2026-05-01 09:15 | 29.58747 | 91.00599 | 16841 ft | 129 kts | 32° |
| 2026-05-01 09:15 | 29.59491 | 91.01178 | 16912 ft | 129 kts | 35° |
| 2026-05-01 09:15 | 29.60202 | 91.01811 | 16959 ft | 132 kts | 39° |
| 2026-05-01 09:16 | 29.60914 | 91.02531 | 16922 ft | 140 kts | 43° |
| 2026-05-01 09:16 | 29.61620 | 91.03349 | 16865 ft | 148 kts | 46° |
| 2026-05-01 09:16 | 29.62317 | 91.04278 | 16802 ft | 156 kts | 51° |
| 2026-05-01 09:17 | 29.63581 | 91.06413 | 16669 ft | 167 kts | 59° |
| 2026-05-01 09:17 | 29.64128 | 91.07622 | 16598 ft | 171 kts | 64° |
| 2026-05-01 09:17 | 29.64956 | 91.10160 | 16654 ft | 167 kts | 73° |
| 2026-05-01 09:18 | 29.65229 | 91.11449 | 16674 ft | 166 kts | 78° |
| 2026-05-01 09:18 | 29.65504 | 91.14028 | 16812 ft | 159 kts | 87° |
| 2026-05-01 09:19 | 29.65461 | 91.16569 | 16852 ft | 160 kts | 90° |
| 2026-05-01 09:19 | 29.65454 | 91.17844 | 16852 ft | 162 kts | 90° |
| 2026-05-01 09:19 | 29.65452 | 91.19148 | 16851 ft | 163 kts | 89° |
| 2026-05-01 09:20 | 29.65523 | 91.21762 | 16848 ft | 165 kts | 86° |
| 2026-05-01 09:20 | 29.65738 | 91.24404 | 16845 ft | 166 kts | 82° |
| 2026-05-01 09:21 | 29.66109 | 91.27022 | 16849 ft | 167 kts | 78° |
| 2026-05-01 09:21 | 29.66353 | 91.28327 | 16851 ft | 167 kts | 76° |
| 2026-05-01 09:21 | 29.66960 | 91.30913 | 16855 ft | 168 kts | 72° |
| 2026-05-01 09:22 | 29.67632 | 91.33488 | 16861 ft | 168 kts | 76° |
| 2026-05-01 09:22 | 29.68182 | 91.36095 | 16864 ft | 168 kts | 70° |
| 2026-05-01 09:23 | 29.68619 | 91.37334 | 16867 ft | 168 kts | 64° |
| 2026-05-01 09:23 | 29.69841 | 91.39616 | 16872 ft | 168 kts | 51° |